Mount Shasta, CA

11:32 PM PST on February 10, 2016 (GMT -0800)
Mt Shasta | | Change Station
CLOSE
Current Station
Personal Weather Station
Location: Mt Shasta, CA
Elevation: 3652 ft
Nearby Weather Stations

Elev 3652 ft 41.33 °N, 122.35 °W | Updated 22 minutes ago

Partly Cloudy
Partly Cloudy
38.8 °F
Feels Like 39 °F
N
0.0
Wind Variable Wind from NW
Gusts 1.0 mph

Today
High -- | Low -- °F
--% Chance of Precip.
Yesterday
High -- | Low -- °F
Precip. -- in
Pressure 30.30 in
Visibility 9.0 miles
Clouds Clear
Windchill 39 °F
Dew Point 36 °F
Humidity 88%
Rainfall 0.00 in
Snow Depth Not available.
7:11 AM 5:36 PM
Waxing Crescent, 10% visible
METAR KMHS 110656Z AUTO 00000KT 9SM CLR 06/01 A3026 RMK AO2 SLP259 T00610006
Pressure 30.30 in
Visibility 9.0 miles
Clouds Clear
Windchill 39 °F
Dew Point 36 °F
Humidity 88%
Rainfall 0.00 in
Snow Depth Not available.
7:11 AM 5:36 PM
Waxing Crescent, 10% visible
METAR KMHS 110656Z AUTO 00000KT 9SM CLR 06/01 A3026 RMK AO2 SLP259 T00610006

10-Day Weather Forecast

Almanac

Astronomy

Feb. 10, 2016 Rise Set
Actual Time
Civil Twilight
Nautical Twilight
Astronomical Twilight
Moon
Length of Visible Light
Length of Day
Tomorrow will be .
, % of the Moon is Illuminated

Today's Extremes

State Highs State Lows

Community

WunderPhotos

Upload Photos

1,892,030 photos uploaded!

WunderBlog® & News

Nearby

Air Quality

  Air Quality AQ Index Pollutant
Not available.

Snow Depth

Station Depth Elevation

Earthquake Activity

City Distance Mag. Time & Date
Minimum magnitude displayed is 2.5.

Coastal Water Temperatures

Place Temperature

Stations

Nearby Weather Stations

Station Location Temp. Windchill Dew Point Humidity Wind Precip. Elev Updated Type
                   

Watches & Warnings

There are currently no watches in effect.